Weather History for Colby, KS

Change the Weather History Date:

Friday, January 11, 2013

  Actual Average (KGLD) Record (KGLD)
Temperature  
Mean Temperature 38 °F 30 °F  
Max Temperature 55 °F 43 °F 70 °F (1999)
Min Temperature 21 °F 17 °F -17 °F (1963)
Degree Days  
Heating Degree Days 27 35  
Month to date heating degree days 387  
Since 1 July heating degree days 2794  
Cooling Degree Days 0 0  
Month to date cooling degree days 0  
Year to date cooling degree days 0  
Moisture  
Dew Point 30 °F    
Average Humidity 82    
Maximum Humidity 100    
Minimum Humidity 37    
Precipitation  
Precipitation 0.00 in 0.01 in 0.20 in (1912)
Month to date precipitation 0.13  
Year to date precipitation 0.13  
Snow  
Snow 0.00 in 0.20 in - ()
Month to date snowfall 2.0  
Since 1 July snowfall 14.7  
Snow Depth -    
Sea Level Pressure  
Sea Level Pressure 29.49 in    
Wind  
Wind Speed 16 mph (WSW)    
Max Wind Speed 36 mph    
Max Gust Speed 43 mph    
Visibility 7 miles    
Events Snow    
T = Trace of Precipitation, MM = Missing Value Source: NWS Daily Summary

Daily Weather History Graph

Daily Weather History Graph

Search for Another Location

Airport:

Trip Planner

Search our weather history database for the weather conditions in past years. The results will help you decide how hot, cold, wet, or windy it might be!

Date:

Astronomy

Jan. 11, 2013 Rise Set
Actual Time 8:03 AM CST 5:41 PM CST
Civil Twilight 7:34 AM CST 6:10 PM CST
Nautical Twilight 7:00 AM CST 6:44 PM CST
Astronomical Twilight 6:28 AM CST 7:16 PM CST
Moon 7:38 AM CST (1/11) 6:00 PM CST (1/11)
Length of Visible Light 10h 36m
Length of Day
9h 37m
Waning Crescent, 0% of the Moon is Illuminated
Jan 11
Waning Crescent
Jan 11
New
Jan 18
First Quarter
Jan 26
Full
Feb 3
Last Quarter

Hourly Weather History & Observations

Time (CST) Temp. Windchill Dew Point Humidity Pressure Visibility Wind Dir Wind Speed Gust Speed Precip Events Conditions
12:15 AM 37.4 °F 27.5 °F 37.4 °F 100% 29.55 in 1.0 mi South 18.4 mph 25.3 mph N/A   Overcast
12:35 AM 37.4 °F 28.9 °F 37.4 °F 100% 29.53 in 0.8 mi South 13.8 mph 20.7 mph N/A   Overcast
12:55 AM 37.4 °F 28.9 °F 37.4 °F 100% 29.53 in 1.0 mi SSW 13.8 mph - N/A   Overcast
1:15 AM 37.4 °F 29.8 °F 37.4 °F 100% 29.51 in 1.2 mi South 11.5 mph 16.1 mph N/A   Overcast
1:35 AM 37.4 °F 30.3 °F 37.4 °F 100% 29.49 in 1.2 mi SSW 10.4 mph - N/A   Overcast
1:55 AM 37.4 °F 27.8 °F 37.4 °F 100% 29.48 in 1.5 mi South 17.3 mph 21.9 mph N/A   Overcast
2:15 AM 37.4 °F 28.9 °F 37.4 °F 100% 29.47 in 2.0 mi South 13.8 mph 19.6 mph N/A   Overcast
2:35 AM 35.6 °F 28.0 °F 35.6 °F 100% 29.48 in 2.0 mi SSW 10.4 mph 18.4 mph N/A   Overcast
2:55 AM 35.6 °F 27.5 °F 35.6 °F 100% 29.48 in 2.0 mi SSW 11.5 mph - N/A   Overcast
3:15 AM 35.6 °F 29.2 °F 35.6 °F 100% 29.47 in 1.8 mi SSW 8.1 mph - N/A   Overcast
3:35 AM 35.6 °F 28.6 °F 35.6 °F 100% 29.46 in 4.0 mi SSW 9.2 mph - N/A   Overcast
3:55 AM 35.6 °F 29.9 °F 35.6 °F 100% 29.45 in 5.0 mi SW 6.9 mph - N/A   Mostly Cloudy
4:15 AM 33.8 °F 28.6 °F 33.8 °F 100% 29.45 in 4.0 mi SW 5.8 mph - N/A   Scattered Clouds
4:35 AM 33.8 °F 27.7 °F 33.8 °F 100% 29.44 in 5.0 mi SSW 6.9 mph - N/A   Clear
4:55 AM 33.8 °F 27.0 °F 33.8 °F 100% 29.43 in 5.0 mi SSW 8.1 mph - N/A   Clear
5:15 AM 33.8 °F 27.0 °F 33.8 °F 100% 29.42 in 7.0 mi SSW 8.1 mph - N/A   Clear
5:35 AM 33.8 °F 27.7 °F 33.8 °F 100% 29.41 in 7.0 mi SW 6.9 mph - N/A   Clear
5:55 AM 33.8 °F 25.8 °F 33.8 °F 100% 29.41 in 10.0 mi SSW 10.4 mph - N/A   Clear
6:35 AM 33.8 °F 27.0 °F 33.8 °F 100% 29.41 in 10.0 mi SSW 8.1 mph - N/A   Clear
6:55 AM 33.8 °F 27.7 °F 33.8 °F 100% 29.40 in 10.0 mi SW 6.9 mph - N/A   Clear
7:15 AM 32.0 °F 24.8 °F 32.0 °F 100% 29.40 in 10.0 mi SSW 8.1 mph - N/A   Clear
7:35 AM 33.8 °F 25.3 °F 32.0 °F 93% 29.39 in 10.0 mi SSW 11.5 mph - N/A   Clear
7:55 AM 35.6 °F 26.6 °F 32.0 °F 87% 29.39 in 10.0 mi SW 13.8 mph - N/A   Clear
8:15 AM 35.6 °F 26.6 °F 32.0 °F 87% 29.39 in 10.0 mi SW 13.8 mph - N/A   Clear
8:35 AM 35.6 °F 26.6 °F 32.0 °F 87% 29.38 in 10.0 mi SW 13.8 mph - N/A   Clear
8:55 AM 35.6 °F 26.6 °F 32.0 °F 87% 29.38 in 10.0 mi SW 13.8 mph - N/A   Clear
9:15 AM 35.6 °F 27.1 °F 32.0 °F 87% 29.39 in 10.0 mi SSW 12.7 mph - N/A   Clear
9:35 AM 37.4 °F 28.5 °F 32.0 °F 81% 29.38 in 10.0 mi South 15.0 mph - N/A   Clear
9:55 AM 37.4 °F 28.5 °F 32.0 °F 81% 29.38 in 10.0 mi SSW 15.0 mph 20.7 mph N/A   Clear
10:15 AM 39.2 °F 30.2 °F 32.0 °F 75% 29.37 in 10.0 mi SSW 17.3 mph 24.2 mph N/A   Clear
10:35 AM 41.0 °F 32.8 °F 32.0 °F 70% 29.36 in 10.0 mi SSW 16.1 mph 24.2 mph N/A   Clear
10:55 AM 42.8 °F 34.0 °F 33.8 °F 70% 29.36 in 10.0 mi SSW 20.7 mph - N/A   Clear
11:15 AM 42.8 °F 34.3 °F 35.6 °F 76% 29.34 in 10.0 mi SW 19.6 mph 27.6 mph N/A   Clear
11:35 AM 44.6 °F 36.4 °F 37.4 °F 76% 29.34 in 10.0 mi SW 20.7 mph 27.6 mph N/A   Clear
11:55 AM 48.2 °F - 37.4 °F 66% 29.32 in 10.0 mi SW 19.6 mph 27.6 mph N/A   Clear
12:15 PM 50.0 °F - 37.4 °F 62% 29.31 in 10.0 mi SSW 23.0 mph 28.8 mph N/A   Clear
12:35 PM 51.8 °F - 37.4 °F 58% 29.30 in 10.0 mi SSW 19.6 mph 25.3 mph N/A   Clear
12:55 PM 53.6 °F - 37.4 °F 54% 29.30 in 10.0 mi SSW 24.2 mph 33.4 mph N/A   Clear
1:15 PM 53.6 °F - 37.4 °F 54% 29.28 in 10.0 mi SSW 23.0 mph 32.2 mph N/A   Clear
1:35 PM 55.4 °F - 35.6 °F 47% 29.28 in 10.0 mi SW 27.6 mph 34.5 mph N/A   Clear
1:55 PM 55.4 °F - 33.8 °F 44% 29.27 in 10.0 mi WSW 27.6 mph 34.5 mph N/A   Clear
2:15 PM 53.6 °F - 30.2 °F 41% 29.28 in 3.0 mi WSW 31.1 mph 38.0 mph N/A   Haze
2:35 PM 50.0 °F - 26.6 °F 40% 29.30 in 0.8 mi WSW 27.6 mph 38.0 mph N/A   Haze
2:55 PM 50.0 °F - 28.4 °F 43% 29.30 in 1.0 mi WSW 31.1 mph 41.4 mph N/A   Haze
3:15 PM 50.0 °F - 26.6 °F 40% 29.32 in 1.5 mi WSW 28.8 mph 38.0 mph N/A   Haze
3:35 PM 48.2 °F - 23.0 °F 37% 29.34 in 1.8 mi WSW 25.3 mph 33.4 mph N/A   Haze
3:55 PM 46.4 °F 38.3 °F 23.0 °F 40% 29.36 in 2.5 mi WSW 23.0 mph 34.5 mph N/A   Haze
4:15 PM 46.4 °F 38.3 °F 23.0 °F 40% 29.37 in 3.0 mi WSW 23.0 mph 32.2 mph N/A   Haze
4:35 PM 46.4 °F 38.7 °F 21.2 °F 37% 29.38 in 4.0 mi SW 20.7 mph 35.7 mph N/A   Haze
4:55 PM 35.6 °F 23.7 °F 33.8 °F 93% 29.44 in 10.0 mi NNW 24.2 mph 31.1 mph N/A   Overcast
5:15 PM 33.8 °F 19.0 °F 32.0 °F 93% 29.49 in 4.0 mi NNW 35.7 mph 41.4 mph N/A   Overcast
5:35 PM 32.0 °F 18.6 °F 32.0 °F 100% 29.54 in 5.0 mi NW 25.3 mph 42.6 mph N/A   Overcast
5:55 PM 32.0 °F 17.6 °F 32.0 °F 100% 29.58 in 3.0 mi NW 29.9 mph 35.7 mph N/A   Overcast
6:15 PM 30.2 °F 14.9 °F 28.4 °F 93% 29.62 in 10.0 mi NW 31.1 mph 38.0 mph N/A   Overcast
6:35 PM 30.2 °F 15.9 °F 28.4 °F 93% 29.65 in 7.0 mi NW 26.5 mph 31.1 mph N/A Snow Light Snow
6:55 PM 28.4 °F 16.6 °F 28.4 °F 100% 29.66 in 4.0 mi NNW 16.1 mph 20.7 mph N/A Snow Light Snow
7:15 PM 28.4 °F 17.0 °F 28.4 °F 100% 29.68 in 10.0 mi NNW 15.0 mph 19.6 mph N/A   Mostly Cloudy
7:55 PM 28.4 °F 15.4 °F 26.6 °F 93% 29.72 in 10.0 mi NW 19.6 mph 28.8 mph N/A   Overcast
8:15 PM 26.6 °F 12.4 °F 23.0 °F 86% 29.74 in 10.0 mi NNW 21.9 mph 29.9 mph N/A   Overcast
8:35 PM 26.6 °F 12.7 °F 23.0 °F 86% 29.76 in 10.0 mi NNW 20.7 mph 24.2 mph N/A   Overcast
8:55 PM 26.6 °F 12.7 °F 23.0 °F 86% 29.79 in 10.0 mi WNW 20.7 mph 28.8 mph N/A   Overcast
9:15 PM 24.8 °F 11.9 °F 21.2 °F 86% 29.82 in 10.0 mi WNW 16.1 mph 25.3 mph N/A   Overcast
9:35 PM 23.0 °F 8.3 °F 19.4 °F 86% 29.82 in 10.0 mi NW 19.6 mph 25.3 mph N/A   Mostly Cloudy
9:55 PM 23.0 °F 7.2 °F 19.4 °F 86% 29.81 in 10.0 mi NW 23.0 mph 28.8 mph N/A   Mostly Cloudy
10:15 PM 23.0 °F 8.0 °F 19.4 °F 86% 29.83 in 10.0 mi NW 20.7 mph - N/A   Scattered Clouds
10:35 PM 23.0 °F 8.7 °F 19.4 °F 86% 29.84 in 10.0 mi NW 18.4 mph - N/A   Mostly Cloudy
10:55 PM 21.2 °F 6.0 °F 17.6 °F 86% 29.84 in 10.0 mi NW 19.6 mph - N/A   Overcast
11:15 PM 21.2 °F 6.4 °F 17.6 °F 86% 29.86 in 10.0 mi NW 18.4 mph 26.5 mph N/A   Overcast
11:35 PM 21.2 °F 4.9 °F 17.6 °F 86% 29.86 in 10.0 mi NW 23.0 mph 27.6 mph N/A   Overcast
11:55 PM 21.2 °F 5.2 °F 14.0 °F 74% 29.87 in 10.0 mi NNW 21.9 mph 28.8 mph N/A   Overcast